createdAt,value
2017-10-28T00:00:06.587Z,88.26
2017-10-28T00:00:32.727Z,87.78
2017-10-28T00:00:58.880Z,88.07
2017-10-28T00:01:25.017Z,87.68
2017-10-28T00:01:51.170Z,87.78
2017-10-28T00:02:17.358Z,88.07
2017-10-28T00:02:43.488Z,88.07
2017-10-28T00:03:09.628Z,88.26
2017-10-28T00:03:35.780Z,87.87
2017-10-28T00:04:01.923Z,87.78
2017-10-28T00:04:28.090Z,88.26
2017-10-28T00:04:54.239Z,88.54
2017-10-28T00:05:20.387Z,88.26
2017-10-28T00:05:46.538Z,88.54
2017-10-28T00:06:12.679Z,88.35
2017-10-28T00:06:38.819Z,88.07
2017-10-28T00:07:04.964Z,88.45
2017-10-28T00:07:31.138Z,87.97
2017-10-28T00:07:57.278Z,88.64
2017-10-28T00:08:23.424Z,87.97
2017-10-28T00:08:49.597Z,87.78
2017-10-28T00:09:15.750Z,88.35
2017-10-28T00:09:41.886Z,88.45
2017-10-28T00:10:08.214Z,88.54
2017-10-28T00:10:34.359Z,87.97
2017-10-28T00:11:00.476Z,88.07
2017-10-28T00:11:26.601Z,88.45
2017-10-28T00:11:52.730Z,88.45
2017-10-28T00:12:18.877Z,88.26
2017-10-28T00:12:45.015Z,88.16
2017-10-28T00:13:11.137Z,88.26
2017-10-28T00:13:37.257Z,88.45
2017-10-28T00:14:03.408Z,88.54
2017-10-28T00:14:29.532Z,88.45
2017-10-28T00:14:55.647Z,88.54
2017-10-28T00:15:21.774Z,88.64
2017-10-28T00:15:47.885Z,87.87
2017-10-28T00:16:14.010Z,87.87
2017-10-28T00:16:40.125Z,88.07
2017-10-28T00:17:06.246Z,88.45
2017-10-28T00:17:32.374Z,88.35
2017-10-28T00:17:58.502Z,88.54
2017-10-28T00:18:24.624Z,88.35
2017-10-28T00:18:50.752Z,87.97
2017-10-28T00:19:16.876Z,88.45
2017-10-28T00:19:42.988Z,88.45
2017-10-28T00:20:09.115Z,88.35
2017-10-28T00:20:35.237Z,88.16
2017-10-28T00:21:01.359Z,88.26
2017-10-28T00:21:27.485Z,88.07
2017-10-28T00:21:53.608Z,87.68
2017-10-28T00:22:19.728Z,87.59
2017-10-28T00:22:45.876Z,88.45
2017-10-28T00:23:11.991Z,88.07
2017-10-28T00:23:38.120Z,88.35
2017-10-28T00:24:04.246Z,88.54
2017-10-28T00:24:30.363Z,88.54
2017-10-28T00:24:56.489Z,88.35
2017-10-28T00:25:22.608Z,88.54
2017-10-28T00:25:48.726Z,88.35
2017-10-28T00:26:14.843Z,88.54
2017-10-28T00:26:40.970Z,88.45
2017-10-28T00:27:07.087Z,88.45
2017-10-28T00:27:33.215Z,88.73
2017-10-28T00:27:59.333Z,88.45
2017-10-28T00:28:25.459Z,88.26
2017-10-28T00:28:51.599Z,88.64
2017-10-28T00:29:17.717Z,88.54
2017-10-28T00:29:43.862Z,88.35
2017-10-28T00:30:09.980Z,88.54
2017-10-28T00:30:36.111Z,88.07
2017-10-28T00:31:02.255Z,87.97
2017-10-28T00:31:28.376Z,88.92
2017-10-28T00:31:54.502Z,88.92
2017-10-28T00:32:20.618Z,88.83
2017-10-28T00:32:46.739Z,88.45
2017-10-28T00:33:12.867Z,88.45
2017-10-28T00:33:38.989Z,88.26
2017-10-28T00:34:05.109Z,88.54
2017-10-28T00:34:31.230Z,88.54
2017-10-28T00:34:57.376Z,88.45
2017-10-28T00:35:23.501Z,87.78
2017-10-28T00:35:49.638Z,87.97
2017-10-28T00:36:15.764Z,88.07
2017-10-28T00:36:41.885Z,88.16
2017-10-28T00:37:08.054Z,88.16
2017-10-28T00:37:34.172Z,88.26
2017-10-28T00:38:00.300Z,88.35
2017-10-28T00:38:26.432Z,88.07
2017-10-28T00:38:52.559Z,87.87
2017-10-28T00:39:18.683Z,87.97
2017-10-28T00:39:44.803Z,88.45
2017-10-28T00:40:10.921Z,87.87
2017-10-28T00:40:37.045Z,87.97
2017-10-28T00:41:03.161Z,88.07
2017-10-28T00:41:29.292Z,88.26
2017-10-28T00:41:55.415Z,87.78
2017-10-28T00:42:21.550Z,88.16
2017-10-28T00:42:47.682Z,87.87
2017-10-28T00:43:13.804Z,87.59
2017-10-28T00:43:39.920Z,87.78
2017-10-28T00:44:06.054Z,87.68
2017-10-28T00:44:32.189Z,87.87
2017-10-28T00:44:58.295Z,87.49
2017-10-28T00:45:24.407Z,87.78
2017-10-28T00:45:50.535Z,87.49
2017-10-28T00:46:16.657Z,88.07
2017-10-28T00:46:42.800Z,87.87
2017-10-28T00:47:08.921Z,87.87
2017-10-28T00:47:35.038Z,87.49
2017-10-28T00:48:01.190Z,87.78
2017-10-28T00:48:27.312Z,87.97
2017-10-28T00:48:53.457Z,87.87
2017-10-28T00:49:19.584Z,87.4
2017-10-28T00:49:45.703Z,87.59
2017-10-28T00:50:11.871Z,87.68
2017-10-28T00:50:37.987Z,87.59
2017-10-28T00:51:04.116Z,87.49
2017-10-28T00:51:30.240Z,88.26
2017-10-28T00:51:56.352Z,88.35
2017-10-28T00:52:22.480Z,88.26
2017-10-28T00:52:48.619Z,87.59
2017-10-28T00:53:14.740Z,87.68
2017-10-28T00:53:40.860Z,87.78
2017-10-28T00:54:06.988Z,87.49
2017-10-28T00:54:33.125Z,87.68
2017-10-28T00:54:59.250Z,87.4
2017-10-28T00:55:25.374Z,87.78
2017-10-28T00:55:51.492Z,87.49
2017-10-28T00:56:17.632Z,87.87
2017-10-28T00:56:43.755Z,88.54
2017-10-28T00:57:09.885Z,87.87
2017-10-28T00:57:36.025Z,88.26
2017-10-28T00:58:02.150Z,87.68
2017-10-28T00:58:28.268Z,87.78
2017-10-28T00:58:54.393Z,87.11
2017-10-28T00:59:20.516Z,87.68
2017-10-28T00:59:46.645Z,87.02
2017-10-28T01:00:12.761Z,87.59
2017-10-28T01:00:38.878Z,87.02
2017-10-28T01:01:05.007Z,87.97
2017-10-28T01:01:31.129Z,87.4
2017-10-28T01:01:57.240Z,87.3
2017-10-28T01:02:23.366Z,87.87
2017-10-28T01:02:49.483Z,87.3
2017-10-28T01:03:15.614Z,87.02
2017-10-28T01:03:41.760Z,87.78
2017-10-28T01:04:07.908Z,87.68
2017-10-28T01:04:34.047Z,87.78
2017-10-28T01:05:00.174Z,87.87
2017-10-28T01:05:26.290Z,87.21
2017-10-28T01:05:52.415Z,86.82
2017-10-28T01:06:18.544Z,87.02
2017-10-28T01:06:44.654Z,86.92
2017-10-28T01:07:10.804Z,87.02
2017-10-28T01:07:36.932Z,87.02
2017-10-28T01:08:03.050Z,86.82
2017-10-28T01:08:29.177Z,87.21
2017-10-28T01:08:55.293Z,87.02
2017-10-28T01:09:21.423Z,86.54
2017-10-28T01:09:47.545Z,86.82
2017-10-28T01:10:13.667Z,86.54
2017-10-28T01:10:39.786Z,86.44
2017-10-28T01:11:05.903Z,86.44
2017-10-28T01:11:32.020Z,86.63
2017-10-28T01:11:58.148Z,86.63
2017-10-28T01:12:24.267Z,86.16
2017-10-28T01:12:50.390Z,86.06
2017-10-28T01:13:16.510Z,85.68
2017-10-28T01:13:42.627Z,85.87
2017-10-28T01:14:08.754Z,85.77
2017-10-28T01:14:34.877Z,86.06
2017-10-28T01:15:00.996Z,85.58
2017-10-28T01:15:27.116Z,85.21
2017-10-28T01:15:53.247Z,85.68
2017-10-28T01:16:19.360Z,85.77
2017-10-28T01:16:45.489Z,85.39
2017-10-28T01:17:11.612Z,85.3
2017-10-28T01:17:37.729Z,85.58
2017-10-28T01:18:03.849Z,85.3
2017-10-28T01:18:29.975Z,85.39
2017-10-28T01:18:56.092Z,85.3
2017-10-28T01:19:22.219Z,85.49
2017-10-28T01:19:48.337Z,85.77
2017-10-28T01:20:14.459Z,85.39
2017-10-28T01:20:40.578Z,85.77
2017-10-28T01:21:06.702Z,85.87
2017-10-28T01:21:32.830Z,85.77
2017-10-28T01:21:58.952Z,85.49
2017-10-28T01:22:25.077Z,85.3
2017-10-28T01:22:51.194Z,85.77
2017-10-28T01:23:17.321Z,85.39
2017-10-28T01:23:43.442Z,85.68
2017-10-28T01:24:09.563Z,85.39
2017-10-28T01:24:35.683Z,85.39
2017-10-28T01:25:01.804Z,85.21
2017-10-28T01:25:27.923Z,85.97
2017-10-28T01:25:54.042Z,85.21
2017-10-28T01:26:20.169Z,85.68
2017-10-28T01:26:46.296Z,85.97
2017-10-28T01:27:12.419Z,85.97
2017-10-28T01:27:38.545Z,86.35
2017-10-28T01:28:04.669Z,86.63
2017-10-28T01:28:30.809Z,86.44
2017-10-28T01:28:56.927Z,86.54
2017-10-28T01:29:23.052Z,86.54
2017-10-28T01:29:49.171Z,86.25
2017-10-28T01:30:15.290Z,86.73
2017-10-28T01:30:41.419Z,86.73
2017-10-28T01:31:07.561Z,86.35
2017-10-28T01:31:33.682Z,86.25
2017-10-28T01:31:59.800Z,86.44
2017-10-28T01:32:25.918Z,86.44
2017-10-28T01:32:52.047Z,86.54
2017-10-28T01:33:18.163Z,86.25
2017-10-28T01:33:44.323Z,86.82
2017-10-28T01:34:10.436Z,87.11
2017-10-28T01:34:36.556Z,86.82
2017-10-28T01:35:02.680Z,86.92
2017-10-28T01:35:28.800Z,86.98
2017-10-28T01:35:54.927Z,87.49
2017-10-28T01:36:21.051Z,87.21
2017-10-28T01:36:47.170Z,87.3
2017-10-28T01:37:13.294Z,87.59
2017-10-28T01:37:39.415Z,87.11
2017-10-28T01:38:05.531Z,87.3
2017-10-28T01:38:31.662Z,87.3
2017-10-28T01:38:57.778Z,87.11
2017-10-28T01:39:23.905Z,87.3
2017-10-28T01:39:50.021Z,87.74
2017-10-28T01:40:16.146Z,87.59
2017-10-28T01:40:42.271Z,87.59
2017-10-28T01:41:08.396Z,87.68
2017-10-28T01:41:34.513Z,87.3
2017-10-28T01:42:00.631Z,87.87
2017-10-28T01:42:26.758Z,87.59
2017-10-28T01:42:52.881Z,87.68
2017-10-28T01:43:19.000Z,87.78
2017-10-28T01:43:45.119Z,87.78
2017-10-28T01:44:11.240Z,87.59
2017-10-28T01:44:37.366Z,87.49
2017-10-28T01:45:03.502Z,87.59
2017-10-28T01:45:29.631Z,87.59
2017-10-28T01:45:55.759Z,87.49
2017-10-28T01:46:21.902Z,87.87
2017-10-28T01:46:48.031Z,87.78
2017-10-28T01:47:14.148Z,87.87
2017-10-28T01:47:40.269Z,87.68
2017-10-28T01:48:06.406Z,87.97
2017-10-28T01:48:32.525Z,87.59
2017-10-28T01:48:58.655Z,87.54
2017-10-28T01:49:24.766Z,87.78
2017-10-28T01:49:50.895Z,87.59
2017-10-28T01:50:17.014Z,87.59
2017-10-28T01:50:43.147Z,88.5
2017-10-28T01:51:09.264Z,87.68
2017-10-28T01:51:35.401Z,87.87
2017-10-28T01:52:01.536Z,87.68
2017-10-28T01:52:27.654Z,87.54
2017-10-28T01:52:53.773Z,87.49
2017-10-28T01:53:19.890Z,87.11
2017-10-28T01:53:46.017Z,87.59
2017-10-28T01:54:12.138Z,87.59
2017-10-28T01:54:38.262Z,87.78
2017-10-28T01:55:04.382Z,87.68
2017-10-28T01:55:30.503Z,87.59
2017-10-28T01:55:56.624Z,87.78
2017-10-28T01:56:22.747Z,87.87
2017-10-28T01:56:48.875Z,87.78
2017-10-28T01:57:14.993Z,87.21
2017-10-28T01:57:41.117Z,87.4
2017-10-28T01:58:07.242Z,87.59
2017-10-28T01:58:33.359Z,87.87
2017-10-28T01:58:59.485Z,87.97
2017-10-28T01:59:25.602Z,87.78
2017-10-28T01:59:51.724Z,87.49
2017-10-28T02:00:17.851Z,87.02
2017-10-28T02:00:43.968Z,87.02
2017-10-28T02:01:10.095Z,86.92
2017-10-28T02:01:36.218Z,87.02
2017-10-28T02:02:02.339Z,87.02
2017-10-28T02:02:28.464Z,87.11
2017-10-28T02:02:54.584Z,86.92
2017-10-28T02:03:20.703Z,86.92
2017-10-28T02:03:46.848Z,86.54
2017-10-28T02:04:12.994Z,87.11
2017-10-28T02:04:39.114Z,87.02
2017-10-28T02:05:05.244Z,87.02
2017-10-28T02:05:31.381Z,87.21
2017-10-28T02:05:57.505Z,87.02
2017-10-28T02:06:23.624Z,86.92
2017-10-28T02:06:49.750Z,86.44
2017-10-28T02:07:15.869Z,86.35
2017-10-28T02:07:42.017Z,86.35
2017-10-28T02:08:08.134Z,86.25
2017-10-28T02:08:34.254Z,86.82
2017-10-28T02:09:00.379Z,86.54
2017-10-28T02:09:26.499Z,86.82
2017-10-28T02:09:52.641Z,86.82
2017-10-28T02:10:18.774Z,86.63
2017-10-28T02:10:44.890Z,86.73
2017-10-28T02:11:11.020Z,86.54
2017-10-28T02:11:37.146Z,86.44
2017-10-28T02:12:03.266Z,86.16
2017-10-28T02:12:29.414Z,85.97
2017-10-28T02:12:55.525Z,85.97
2017-10-28T02:13:21.669Z,85.68
2017-10-28T02:13:47.789Z,85.87
2017-10-28T02:14:13.909Z,85.77
2017-10-28T02:14:40.038Z,85.77
2017-10-28T02:15:06.156Z,85.39
2017-10-28T02:15:32.282Z,85.39
2017-10-28T02:15:58.404Z,85.87
2017-10-28T02:16:24.521Z,85.21
2017-10-28T02:16:50.650Z,85.21
2017-10-28T02:17:16.777Z,85.01
2017-10-28T02:17:42.894Z,85.11
2017-10-28T02:18:09.017Z,85.97
2017-10-28T02:18:35.137Z,85.21
2017-10-28T02:19:01.263Z,85.21
2017-10-28T02:19:27.383Z,85.11
2017-10-28T02:19:53.506Z,85.3
2017-10-28T02:20:19.623Z,85.39
2017-10-28T02:20:45.750Z,85.3
2017-10-28T02:21:11.868Z,85.49
2017-10-28T02:21:37.998Z,85.21
2017-10-28T02:22:04.136Z,85.58
2017-10-28T02:22:30.256Z,85.58
2017-10-28T02:22:56.382Z,85.3
2017-10-28T02:23:22.499Z,85.68
2017-10-28T02:23:48.623Z,85.68
2017-10-28T02:24:14.762Z,85.58
2017-10-28T02:24:40.889Z,85.21
2017-10-28T02:25:07.011Z,85.3
2017-10-28T02:25:33.132Z,85.77
2017-10-28T02:25:59.256Z,85.3
2017-10-28T02:26:25.373Z,85.58
2017-10-28T02:26:51.500Z,85.11
2017-10-28T02:27:17.623Z,85.3
2017-10-28T02:27:43.740Z,85.3
2017-10-28T02:28:09.869Z,85.21
2017-10-28T02:28:35.992Z,85.21
2017-10-28T02:29:02.110Z,85.49
2017-10-28T02:29:28.234Z,85.68
2017-10-28T02:29:54.357Z,85.68
2017-10-28T02:30:20.480Z,85.3
2017-10-28T02:30:46.608Z,85.3
2017-10-28T02:31:12.721Z,85.11
2017-10-28T02:31:38.839Z,85.11
2017-10-28T02:32:04.967Z,84.92
2017-10-28T02:32:31.106Z,84.63
2017-10-28T02:32:57.229Z,84.63
2017-10-28T02:33:23.349Z,84.44
2017-10-28T02:33:49.471Z,84.82
2017-10-28T02:34:15.593Z,84.72
2017-10-28T02:34:41.714Z,84.82
2017-10-28T02:35:07.840Z,84.82
2017-10-28T02:35:33.987Z,84.82
2017-10-28T02:36:00.133Z,84.72
2017-10-28T02:36:26.254Z,84.92
2017-10-28T02:36:52.368Z,84.53
2017-10-28T02:37:18.488Z,84.44
2017-10-28T02:37:44.613Z,85.11
2017-10-28T02:38:10.745Z,85.01
2017-10-28T02:38:36.855Z,84.63
2017-10-28T02:39:03.033Z,84.53
2017-10-28T02:39:29.153Z,84.44
2017-10-28T02:39:55.273Z,84.44
2017-10-28T02:40:21.393Z,84.53
2017-10-28T02:40:47.510Z,84.82
2017-10-28T02:41:13.640Z,84.53
2017-10-28T02:41:39.759Z,84.53
2017-10-28T02:42:05.880Z,84.82
2017-10-28T02:42:32.023Z,84.63
2017-10-28T02:42:58.140Z,84.53
2017-10-28T02:43:24.267Z,84.82
2017-10-28T02:43:50.387Z,84.82
2017-10-28T02:44:16.520Z,84.72
2017-10-28T02:44:42.629Z,84.72
2017-10-28T02:45:08.757Z,85.11
2017-10-28T02:45:34.872Z,84.72
2017-10-28T02:46:00.994Z,84.63
2017-10-28T02:46:27.121Z,84.44
2017-10-28T02:46:53.238Z,84.63
2017-10-28T02:47:19.367Z,84.63
2017-10-28T02:47:45.491Z,85.11
2017-10-28T02:48:11.632Z,85.01
2017-10-28T02:48:37.751Z,84.63
2017-10-28T02:49:03.879Z,84.92
2017-10-28T02:49:30.005Z,85.21
2017-10-28T02:49:56.125Z,84.72
2017-10-28T02:50:22.245Z,85.11
2017-10-28T02:50:48.362Z,84.82
2017-10-28T02:51:14.486Z,85.3
2017-10-28T02:51:40.612Z,85.16
2017-10-28T02:52:06.731Z,85.49
2017-10-28T02:52:32.852Z,85.25
2017-10-28T02:52:58.982Z,85.49
2017-10-28T02:53:25.100Z,85.83
2017-10-28T02:53:51.240Z,85.39
2017-10-28T02:54:17.363Z,85.3
2017-10-28T02:54:43.482Z,85.49
2017-10-28T02:55:09.619Z,85.87
2017-10-28T02:55:35.741Z,85.68
2017-10-28T02:56:01.858Z,85.73
2017-10-28T02:56:28.002Z,85.11
2017-10-28T02:56:54.122Z,85.49
2017-10-28T02:57:20.240Z,85.39
2017-10-28T02:57:46.363Z,85.25
2017-10-28T02:58:12.510Z,85.21
2017-10-28T02:58:38.632Z,85.64
2017-10-28T02:59:04.754Z,85.58
2017-10-28T02:59:30.880Z,85.73
2017-10-28T02:59:57.018Z,85.97
2017-10-28T03:00:23.136Z,85.21
2017-10-28T03:00:49.263Z,85.97
2017-10-28T03:01:15.389Z,85.93
2017-10-28T03:01:41.505Z,85.97
2017-10-28T03:02:07.626Z,85.97
2017-10-28T03:02:33.749Z,85.21
2017-10-28T03:02:59.865Z,85.3
2017-10-28T03:03:25.991Z,85.21
2017-10-28T03:03:52.107Z,85.21
2017-10-28T03:04:18.235Z,85.49
2017-10-28T03:04:44.351Z,85.3
2017-10-28T03:05:10.471Z,85.39
2017-10-28T03:05:36.594Z,85.54
2017-10-28T03:06:02.715Z,85.11
2017-10-28T03:06:28.843Z,85.45
2017-10-28T03:06:54.987Z,85.68
2017-10-28T03:07:21.105Z,85.73
2017-10-28T03:07:47.233Z,86.02
2017-10-28T03:08:13.357Z,86.02
2017-10-28T03:08:39.473Z,85.93
2017-10-28T03:09:05.598Z,85.73
2017-10-28T03:09:31.718Z,85.87
2017-10-28T03:09:57.845Z,85.97
2017-10-28T03:10:23.960Z,85.77
2017-10-28T03:10:50.089Z,85.68
2017-10-28T03:11:16.243Z,85.64
2017-10-28T03:11:42.356Z,85.68
2017-10-28T03:12:08.475Z,85.68
2017-10-28T03:12:34.601Z,85.39
2017-10-28T03:13:00.725Z,85.3
2017-10-28T03:13:26.842Z,85.39
2017-10-28T03:13:52.968Z,85.39
2017-10-28T03:14:19.091Z,85.3
2017-10-28T03:14:45.230Z,86.25
2017-10-28T03:15:11.349Z,85.3
2017-10-28T03:15:37.465Z,85.45
2017-10-28T03:16:03.592Z,85.11
2017-10-28T03:16:29.716Z,85.35
2017-10-28T03:16:55.840Z,85.64
2017-10-28T03:17:21.962Z,85.73
2017-10-28T03:17:48.077Z,86.02
2017-10-28T03:18:14.206Z,85.73
2017-10-28T03:18:40.330Z,85.35
2017-10-28T03:19:06.444Z,85.49
2017-10-28T03:19:32.567Z,85.06
2017-10-28T03:19:58.689Z,86.16
2017-10-28T03:20:24.815Z,85.21
2017-10-28T03:20:50.933Z,85.11
2017-10-28T03:21:17.060Z,85.21
2017-10-28T03:21:43.210Z,85.39
2017-10-28T03:22:09.321Z,85.83
2017-10-28T03:22:35.464Z,85.73
2017-10-28T03:23:01.590Z,85.83
2017-10-28T03:23:27.715Z,85.25
2017-10-28T03:23:53.833Z,85.73
2017-10-28T03:24:19.960Z,85.93
2017-10-28T03:24:46.076Z,85.93
2017-10-28T03:25:12.205Z,85.64
2017-10-28T03:25:38.322Z,85.93
2017-10-28T03:26:04.440Z,85.93
2017-10-28T03:26:30.569Z,85.93
2017-10-28T03:26:56.687Z,86.21
2017-10-28T03:27:22.813Z,85.73
2017-10-28T03:27:48.940Z,86.11
2017-10-28T03:28:15.058Z,85.73
2017-10-28T03:28:41.186Z,85.93
2017-10-28T03:29:07.309Z,85.93
2017-10-28T03:29:33.433Z,86.02
2017-10-28T03:29:59.544Z,86.11
2017-10-28T03:30:25.673Z,85.93
2017-10-28T03:30:51.791Z,86.11
2017-10-28T03:31:17.910Z,86.21
2017-10-28T03:31:44.029Z,86.21
2017-10-28T03:32:10.148Z,85.93
2017-10-28T03:32:36.273Z,86.21
2017-10-28T03:33:02.391Z,85.93
2017-10-28T03:33:28.512Z,85.93
2017-10-28T03:33:54.641Z,85.73
2017-10-28T03:34:20.767Z,85.45
2017-10-28T03:34:46.883Z,85.93
2017-10-28T03:35:13.001Z,85.73
2017-10-28T03:35:39.131Z,85.64
2017-10-28T03:36:05.252Z,86.21
2017-10-28T03:36:31.376Z,86.21
2017-10-28T03:36:57.497Z,85.45
2017-10-28T03:37:23.620Z,86.11
2017-10-28T03:37:49.737Z,86.11
2017-10-28T03:38:15.863Z,86.21
2017-10-28T03:38:41.980Z,86.11
2017-10-28T03:39:08.128Z,86.11
2017-10-28T03:39:34.248Z,86.78
2017-10-28T03:40:00.364Z,86.21
2017-10-28T03:40:26.492Z,86.49
2017-10-28T03:40:52.615Z,86.4
2017-10-28T03:41:18.737Z,86.4
2017-10-28T03:41:44.853Z,86.3
2017-10-28T03:42:11.000Z,86.3
2017-10-28T03:42:37.121Z,86.3
2017-10-28T03:43:03.238Z,86.11
2017-10-28T03:43:29.359Z,86.4
2017-10-28T03:43:55.486Z,86.21
2017-10-28T03:44:21.610Z,86.3
2017-10-28T03:44:47.726Z,86.3
2017-10-28T03:45:13.848Z,86.59
2017-10-28T03:45:39.973Z,86.4
2017-10-28T03:46:06.088Z,86.11
2017-10-28T03:46:32.215Z,86.4
2017-10-28T03:46:58.337Z,86.59
2017-10-28T03:47:24.458Z,86.3
2017-10-28T03:47:50.581Z,86.49
2017-10-28T03:48:16.698Z,86.21
2017-10-28T03:48:42.844Z,86.4
2017-10-28T03:49:08.961Z,86.59
2017-10-28T03:49:35.092Z,86.59
2017-10-28T03:50:01.213Z,86.69
2017-10-28T03:50:27.339Z,86.59
2017-10-28T03:50:53.451Z,86.69
2017-10-28T03:51:19.570Z,86.69
2017-10-28T03:51:45.719Z,86.4
2017-10-28T03:52:11.840Z,86.26
2017-10-28T03:52:37.963Z,86.69
2017-10-28T03:53:04.082Z,86.69
2017-10-28T03:53:30.207Z,87.07
2017-10-28T03:53:56.335Z,86.78
2017-10-28T03:54:22.453Z,86.49
2017-10-28T03:54:48.580Z,86.69
2017-10-28T03:55:14.690Z,86.98
2017-10-28T03:55:40.850Z,86.88
2017-10-28T03:56:06.953Z,86.78
2017-10-28T03:56:33.076Z,87.07
2017-10-28T03:56:59.200Z,86.83
2017-10-28T03:57:25.337Z,87.16
2017-10-28T03:57:51.462Z,86.98
2017-10-28T03:58:17.582Z,86.88
2017-10-28T03:58:43.706Z,87.07
2017-10-28T03:59:09.826Z,87.12
2017-10-28T03:59:35.952Z,86.59
2017-10-28T04:00:02.076Z,86.65
2017-10-28T04:00:28.194Z,86.93
2017-10-28T04:00:54.313Z,87.16
2017-10-28T04:01:20.435Z,86.59
2017-10-28T04:01:46.564Z,86.69
2017-10-28T04:02:12.682Z,86.36
2017-10-28T04:02:38.808Z,86.3
2017-10-28T04:03:04.925Z,86.55
2017-10-28T04:03:31.052Z,86.65
2017-10-28T04:03:57.171Z,87.02
2017-10-28T04:04:23.292Z,86.93
2017-10-28T04:04:49.418Z,87.12
2017-10-28T04:05:15.557Z,87.12
2017-10-28T04:05:41.686Z,86.98
2017-10-28T04:06:07.801Z,86.93
2017-10-28T04:06:33.928Z,86.98
2017-10-28T04:07:00.074Z,86.98
2017-10-28T04:07:26.192Z,86.78
2017-10-28T04:07:52.313Z,86.88
2017-10-28T04:08:18.439Z,86.98
2017-10-28T04:08:44.580Z,87.07
2017-10-28T04:09:10.697Z,86.21
2017-10-28T04:09:36.823Z,86.93
2017-10-28T04:10:02.940Z,86.93
2017-10-28T04:10:29.059Z,87.07
2017-10-28T04:10:55.198Z,86.88
2017-10-28T04:11:21.305Z,87.07
2017-10-28T04:11:47.427Z,86.88
2017-10-28T04:12:13.548Z,86.78
2017-10-28T04:12:39.698Z,86.21
2017-10-28T04:13:05.817Z,86.88
2017-10-28T04:13:31.935Z,86.59
2017-10-28T04:13:58.065Z,87.12
2017-10-28T04:14:24.183Z,86.93
2017-10-28T04:14:50.317Z,87.02
2017-10-28T04:15:16.428Z,86.83
2017-10-28T04:15:42.541Z,87.02
2017-10-28T04:16:08.668Z,87.35
2017-10-28T04:16:34.783Z,87.02
2017-10-28T04:17:00.907Z,87.31
2017-10-28T04:17:27.050Z,87.12
2017-10-28T04:17:53.171Z,87.26
2017-10-28T04:18:19.304Z,87.07
2017-10-28T04:18:45.445Z,86.88
2017-10-28T04:19:11.577Z,86.98
2017-10-28T04:19:37.781Z,87.02
2017-10-28T04:20:03.912Z,86.88
2017-10-28T04:20:30.028Z,86.78
2017-10-28T04:20:56.161Z,87.5
2017-10-28T04:21:22.281Z,87.88
2017-10-28T04:21:48.402Z,87.5
2017-10-28T04:22:14.528Z,87.6
2017-10-28T04:22:40.651Z,87.69
2017-10-28T04:23:06.804Z,87.74
2017-10-28T04:23:32.930Z,87.54
2017-10-28T04:23:59.049Z,87.64
2017-10-28T04:24:25.169Z,87.74
2017-10-28T04:24:51.295Z,87.74
2017-10-28T04:25:17.411Z,87.35
2017-10-28T04:25:43.540Z,87.26
2017-10-28T04:26:09.666Z,87.26
2017-10-28T04:26:35.785Z,87.35
2017-10-28T04:27:01.907Z,87.35
2017-10-28T04:27:28.034Z,87.07
2017-10-28T04:27:54.159Z,87.35
2017-10-28T04:28:20.296Z,86.69
2017-10-28T04:28:46.423Z,86.98
2017-10-28T04:29:12.544Z,86.78
2017-10-28T04:29:38.686Z,87.07
2017-10-28T04:30:04.810Z,86.78
2017-10-28T04:30:30.929Z,87.07
2017-10-28T04:30:57.058Z,87.26
2017-10-28T04:31:23.186Z,86.78
2017-10-28T04:31:49.326Z,86.69
2017-10-28T04:32:15.456Z,86.98
2017-10-28T04:32:41.569Z,86.98
2017-10-28T04:33:07.694Z,87.45
2017-10-28T04:33:33.811Z,86.88
2017-10-28T04:33:59.943Z,86.88
2017-10-28T04:34:26.058Z,87.12
2017-10-28T04:34:52.244Z,87.45
2017-10-28T04:35:18.370Z,86.88
2017-10-28T04:35:44.510Z,87.35
2017-10-28T04:36:10.634Z,87.45
2017-10-28T04:36:36.749Z,87.35
2017-10-28T04:37:02.876Z,87.26
2017-10-28T04:37:28.995Z,87.35
2017-10-28T04:37:55.124Z,86.78
2017-10-28T04:38:21.236Z,87.07
2017-10-28T04:38:47.362Z,86.98
2017-10-28T04:39:13.509Z,87.07
2017-10-28T04:39:39.636Z,86.98
2017-10-28T04:40:05.764Z,86.98
2017-10-28T04:40:31.878Z,86.98
2017-10-28T04:40:57.996Z,86.69
2017-10-28T04:41:24.123Z,87.07
2017-10-28T04:41:50.242Z,86.98
2017-10-28T04:42:16.369Z,87.07
2017-10-28T04:42:42.494Z,86.98
2017-10-28T04:43:08.621Z,86.88
2017-10-28T04:43:34.736Z,86.98
2017-10-28T04:44:01.184Z,87.07
2017-10-28T04:44:27.328Z,86.98
2017-10-28T04:44:53.962Z,86.98
2017-10-28T04:45:20.035Z,87.26
2017-10-28T04:45:46.177Z,87.45
2017-10-28T04:46:12.295Z,87.35
2017-10-28T04:46:38.426Z,87.45
2017-10-28T04:47:04.548Z,87.26
2017-10-28T04:47:30.664Z,86.59
2017-10-28T04:47:56.790Z,87.45
2017-10-28T04:48:22.913Z,86.88
2017-10-28T04:48:49.093Z,87.64
2017-10-28T04:49:15.394Z,87.21
2017-10-28T04:49:41.563Z,87.35
2017-10-28T04:50:07.822Z,87.74
2017-10-28T04:50:33.927Z,87.93
2017-10-28T04:51:00.056Z,87.93
2017-10-28T04:51:26.173Z,87.93
2017-10-28T04:51:52.301Z,87.64
2017-10-28T04:52:18.444Z,87.74
2017-10-28T04:52:44.561Z,87.35
2017-10-28T04:53:10.893Z,87.69
2017-10-28T04:53:37.041Z,87.45
2017-10-28T04:54:03.194Z,87.64
2017-10-28T04:54:29.363Z,87.6
2017-10-28T04:54:55.512Z,87.5
2017-10-28T04:55:21.668Z,87.6
2017-10-28T04:55:47.803Z,87.54
2017-10-28T04:56:13.925Z,87.6
2017-10-28T04:56:40.050Z,88.26
2017-10-28T04:57:06.175Z,87.6
2017-10-28T04:57:32.333Z,88.26
2017-10-28T04:57:58.539Z,88.07
2017-10-28T04:58:24.736Z,88.07
2017-10-28T04:58:50.852Z,88.17
2017-10-28T04:59:16.973Z,87.79
2017-10-28T04:59:43.151Z,87.98
2017-10-28T05:00:09.287Z,87.88
2017-10-28T05:00:35.411Z,88.36
2017-10-28T05:01:01.546Z,88.45
2017-10-28T05:01:27.652Z,88.55
2017-10-28T05:01:53.858Z,88.45
2017-10-28T05:02:20.082Z,88.45
2017-10-28T05:02:46.275Z,88.36
2017-10-28T05:03:12.490Z,88.45
2017-10-28T05:03:38.587Z,88.07
2017-10-28T05:04:04.714Z,88.07
2017-10-28T05:04:30.843Z,87.98
2017-10-28T05:04:56.961Z,88.36
2017-10-28T05:05:23.090Z,88.45
2017-10-28T05:05:49.234Z,87.69
2017-10-28T05:06:15.940Z,87.98
2017-10-28T05:06:42.191Z,88.07
2017-10-28T05:07:08.429Z,87.88
2017-10-28T05:07:34.565Z,88.55
2017-10-28T05:08:01.046Z,87.79
2017-10-28T05:08:27.091Z,87.88
2017-10-28T05:08:53.212Z,88.55
2017-10-28T05:09:19.348Z,88.55
2017-10-28T05:09:45.468Z,87.79
2017-10-28T05:10:11.589Z,87.79
2017-10-28T05:10:37.739Z,87.88
2017-10-28T05:11:03.903Z,88.26
2017-10-28T05:11:30.110Z,87.79
2017-10-28T05:11:56.265Z,87.79
2017-10-28T05:12:22.389Z,88.55
2017-10-28T05:12:48.497Z,88.17
2017-10-28T05:13:14.626Z,88.26
2017-10-28T05:13:40.742Z,88.17
2017-10-28T05:14:06.860Z,88.07
2017-10-28T05:14:32.985Z,88.07
2017-10-28T05:14:59.136Z,87.88
2017-10-28T05:15:25.432Z,88.26
2017-10-28T05:15:51.609Z,88.26
2017-10-28T05:16:18.375Z,88.17
2017-10-28T05:16:44.554Z,88.45
2017-10-28T05:17:10.690Z,87.69
2017-10-28T05:17:36.806Z,87.98
2017-10-28T05:18:02.929Z,88.26
2017-10-28T05:18:29.062Z,88.64
2017-10-28T05:18:55.179Z,88.07
2017-10-28T05:19:21.330Z,87.98
2017-10-28T05:20:43.402Z,88.07
2017-10-28T05:21:09.529Z,88.36
2017-10-28T05:21:35.643Z,87.88
2017-10-28T05:22:01.768Z,88.26
2017-10-28T05:22:27.899Z,88.36
2017-10-28T05:22:54.014Z,88.55
2017-10-28T05:23:20.162Z,88.55
2017-10-28T05:23:46.320Z,88.36
2017-10-28T05:24:12.446Z,88.64
2017-10-28T05:24:38.575Z,87.98
2017-10-28T05:25:04.695Z,88.26
2017-10-28T05:25:30.826Z,88.55
2017-10-28T05:25:57.017Z,88.26
2017-10-28T05:26:23.590Z,87.88
2017-10-28T05:26:49.709Z,88.36
2017-10-28T05:27:15.999Z,87.88
2017-10-28T05:27:42.264Z,87.69
2017-10-28T05:28:08.666Z,88.36
2017-10-28T05:28:34.827Z,87.88
2017-10-28T05:29:00.948Z,87.98
2017-10-28T05:29:27.068Z,88.17
2017-10-28T05:29:53.192Z,87.6
2017-10-28T05:30:19.316Z,87.5
2017-10-28T05:30:45.463Z,87.69
2017-10-28T05:31:11.977Z,87.6
2017-10-28T05:31:38.137Z,87.98
2017-10-28T05:32:04.262Z,87.69
2017-10-28T05:32:30.430Z,87.88
2017-10-28T05:32:56.547Z,88.07
2017-10-28T05:33:22.680Z,87.6
2017-10-28T05:33:48.798Z,87.88
2017-10-28T05:34:14.915Z,88.17
2017-10-28T05:34:41.142Z,88.45
2017-10-28T05:35:07.312Z,88.36
2017-10-28T05:35:33.753Z,88.26
2017-10-28T05:35:59.903Z,88.17
2017-10-28T05:36:26.028Z,88.84
2017-10-28T05:36:52.150Z,88.84
2017-10-28T05:37:18.281Z,88.26
2017-10-28T05:37:44.389Z,88.26
2017-10-28T05:38:10.518Z,88.84